sensor_id;sensor_type;location;lat;lon;timestamp;temperature;humidity
15609;DHT22;64278;45.642;13.756;2023-04-03T00:01:30;22.00;63.30
15609;DHT22;64278;45.642;13.756;2023-04-03T00:03:56;22.00;63.30
15609;DHT22;64278;45.642;13.756;2023-04-03T00:06:23;22.00;63.20
15609;DHT22;64278;45.642;13.756;2023-04-03T00:08:49;22.00;63.20
15609;DHT22;64278;45.642;13.756;2023-04-03T00:11:15;22.00;63.10
15609;DHT22;64278;45.642;13.756;2023-04-03T00:13:41;22.00;63.20
15609;DHT22;64278;45.642;13.756;2023-04-03T00:16:08;22.00;63.00
15609;DHT22;64278;45.642;13.756;2023-04-03T00:18:34;22.00;63.00
15609;DHT22;64278;45.642;13.756;2023-04-03T00:21:00;22.00;63.00
15609;DHT22;64278;45.642;13.756;2023-04-03T00:23:26;22.00;62.90
15609;DHT22;64278;45.642;13.756;2023-04-03T00:25:52;22.00;62.90
15609;DHT22;64278;45.642;13.756;2023-04-03T00:28:18;22.00;62.90
15609;DHT22;64278;45.642;13.756;2023-04-03T00:30:45;22.00;62.80
15609;DHT22;64278;45.642;13.756;2023-04-03T00:33:14;22.00;62.80
15609;DHT22;64278;45.642;13.756;2023-04-03T00:35:40;22.00;62.80
15609;DHT22;64278;45.642;13.756;2023-04-03T00:38:06;22.00;62.70
15609;DHT22;64278;45.642;13.756;2023-04-03T00:40:38;22.00;62.70
15609;DHT22;64278;45.642;13.756;2023-04-03T00:43:31;22.00;62.70
15609;DHT22;64278;45.642;13.756;2023-04-03T00:45:57;21.90;62.60
15609;DHT22;64278;45.642;13.756;2023-04-03T00:48:30;22.00;62.70
15609;DHT22;64278;45.642;13.756;2023-04-03T00:50:57;22.00;62.60
15609;DHT22;64278;45.642;13.756;2023-04-03T00:53:31;21.90;62.50
15609;DHT22;64278;45.642;13.756;2023-04-03T00:55:58;21.90;62.50
15609;DHT22;64278;45.642;13.756;2023-04-03T00:58:32;21.90;62.40
15609;DHT22;64278;45.642;13.756;2023-04-03T01:00:58;21.90;62.40
15609;DHT22;64278;45.642;13.756;2023-04-03T01:03:28;21.90;62.40
15609;DHT22;64278;45.642;13.756;2023-04-03T01:05:53;21.90;62.40
15609;DHT22;64278;45.642;13.756;2023-04-03T01:08:20;21.90;62.30
15609;DHT22;64278;45.642;13.756;2023-04-03T01:10:45;21.90;62.20
15609;DHT22;64278;45.642;13.756;2023-04-03T01:13:23;21.90;62.10
15609;DHT22;64278;45.642;13.756;2023-04-03T01:15:50;21.90;62.00
15609;DHT22;64278;45.642;13.756;2023-04-03T01:18:16;21.90;61.90
15609;DHT22;64278;45.642;13.756;2023-04-03T01:20:59;21.90;61.90
15609;DHT22;64278;45.642;13.756;2023-04-03T01:23:59;21.90;61.90
15609;DHT22;64278;45.642;13.756;2023-04-03T01:26:29;21.90;61.80
15609;DHT22;64278;45.642;13.756;2023-04-03T01:28:55;21.90;61.70
15609;DHT22;64278;45.642;13.756;2023-04-03T01:31:31;21.80;61.50
15609;DHT22;64278;45.642;13.756;2023-04-03T01:33:59;21.90;61.60
15609;DHT22;64278;45.642;13.756;2023-04-03T01:36:28;21.90;61.50
15609;DHT22;64278;45.642;13.756;2023-04-03T01:38:55;21.90;61.50
15609;DHT22;64278;45.642;13.756;2023-04-03T01:41:22;21.80;61.40
15609;DHT22;64278;45.642;13.756;2023-04-03T01:43:48;21.80;61.30
15609;DHT22;64278;45.642;13.756;2023-04-03T01:46:15;21.80;61.20
15609;DHT22;64278;45.642;13.756;2023-04-03T01:48:41;21.80;61.20
15609;DHT22;64278;45.642;13.756;2023-04-03T01:51:07;21.80;61.10
15609;DHT22;64278;45.642;13.756;2023-04-03T01:53:33;21.80;61.10
15609;DHT22;64278;45.642;13.756;2023-04-03T01:55:58;21.80;61.00
15609;DHT22;64278;45.642;13.756;2023-04-03T01:58:24;21.80;61.00
15609;DHT22;64278;45.642;13.756;2023-04-03T02:00:51;21.80;61.00
15609;DHT22;64278;45.642;13.756;2023-04-03T02:03:17;21.80;61.70
15609;DHT22;64278;45.642;13.756;2023-04-03T02:05:42;21.80;60.90
15609;DHT22;64278;45.642;13.756;2023-04-03T02:08:08;21.80;60.90
15609;DHT22;64278;45.642;13.756;2023-04-03T02:10:34;21.80;60.80
15609;DHT22;64278;45.642;13.756;2023-04-03T02:13:00;21.80;60.80
15609;DHT22;64278;45.642;13.756;2023-04-03T02:15:26;21.80;60.80
15609;DHT22;64278;45.642;13.756;2023-04-03T02:17:52;21.80;60.70
15609;DHT22;64278;45.642;13.756;2023-04-03T02:20:18;21.80;60.70
15609;DHT22;64278;45.642;13.756;2023-04-03T02:22:44;21.80;60.60
15609;DHT22;64278;45.642;13.756;2023-04-03T02:25:09;21.80;60.60
15609;DHT22;64278;45.642;13.756;2023-04-03T02:27:36;21.80;60.60
15609;DHT22;64278;45.642;13.756;2023-04-03T02:30:03;21.80;60.60
15609;DHT22;64278;45.642;13.756;2023-04-03T02:32:29;21.80;60.60
15609;DHT22;64278;45.642;13.756;2023-04-03T02:34:55;21.80;60.60
15609;DHT22;64278;45.642;13.756;2023-04-03T02:37:20;21.80;60.60
15609;DHT22;64278;45.642;13.756;2023-04-03T02:39:46;21.80;60.60
15609;DHT22;64278;45.642;13.756;2023-04-03T02:42:12;21.80;60.60
15609;DHT22;64278;45.642;13.756;2023-04-03T02:44:37;21.80;60.50
15609;DHT22;64278;45.642;13.756;2023-04-03T02:47:04;21.80;60.50
15609;DHT22;64278;45.642;13.756;2023-04-03T02:49:30;21.80;60.50
15609;DHT22;64278;45.642;13.756;2023-04-03T02:51:56;21.70;60.50
15609;DHT22;64278;45.642;13.756;2023-04-03T02:54:22;21.80;60.50
15609;DHT22;64278;45.642;13.756;2023-04-03T02:56:49;21.70;61.20
15609;DHT22;64278;45.642;13.756;2023-04-03T02:59:15;21.80;60.20
15609;DHT22;64278;45.642;13.756;2023-04-03T03:01:40;21.70;60.10
15609;DHT22;64278;45.642;13.756;2023-04-03T03:04:06;21.70;60.10
15609;DHT22;64278;45.642;13.756;2023-04-03T03:06:32;21.70;60.10
15609;DHT22;64278;45.642;13.756;2023-04-03T03:08:57;21.70;60.00
15609;DHT22;64278;45.642;13.756;2023-04-03T03:11:23;21.70;60.00
15609;DHT22;64278;45.642;13.756;2023-04-03T03:13:49;21.70;60.00
15609;DHT22;64278;45.642;13.756;2023-04-03T03:16:14;21.70;60.00
15609;DHT22;64278;45.642;13.756;2023-04-03T03:18:40;21.70;60.00
15609;DHT22;64278;45.642;13.756;2023-04-03T03:21:06;21.70;59.90
15609;DHT22;64278;45.642;13.756;2023-04-03T03:23:32;21.70;59.80
15609;DHT22;64278;45.642;13.756;2023-04-03T03:26:00;21.70;59.70
15609;DHT22;64278;45.642;13.756;2023-04-03T03:28:27;21.70;59.70
15609;DHT22;64278;45.642;13.756;2023-04-03T03:30:52;21.70;59.60
15609;DHT22;64278;45.642;13.756;2023-04-03T03:33:18;21.70;59.60
15609;DHT22;64278;45.642;13.756;2023-04-03T03:35:45;21.70;59.60
15609;DHT22;64278;45.642;13.756;2023-04-03T03:38:10;21.70;59.50
15609;DHT22;64278;45.642;13.756;2023-04-03T03:40:36;21.70;59.50
15609;DHT22;64278;45.642;13.756;2023-04-03T03:43:02;21.70;59.40
15609;DHT22;64278;45.642;13.756;2023-04-03T03:45:28;21.70;59.30
15609;DHT22;64278;45.642;13.756;2023-04-03T03:47:54;21.60;59.30
15609;DHT22;64278;45.642;13.756;2023-04-03T03:50:19;21.70;59.40
15609;DHT22;64278;45.642;13.756;2023-04-03T03:52:46;21.60;59.30
15609;DHT22;64278;45.642;13.756;2023-04-03T03:55:11;21.60;59.30
15609;DHT22;64278;45.642;13.756;2023-04-03T03:57:37;21.60;59.30
15609;DHT22;64278;45.642;13.756;2023-04-03T04:00:03;21.60;59.30
15609;DHT22;64278;45.642;13.756;2023-04-03T04:02:29;21.60;59.30
15609;DHT22;64278;45.642;13.756;2023-04-03T04:04:55;21.60;59.30
15609;DHT22;64278;45.642;13.756;2023-04-03T04:07:21;21.60;59.20
15609;DHT22;64278;45.642;13.756;2023-04-03T04:09:47;21.60;59.20
15609;DHT22;64278;45.642;13.756;2023-04-03T04:12:12;21.60;59.20
15609;DHT22;64278;45.642;13.756;2023-04-03T04:14:38;21.60;59.10
15609;DHT22;64278;45.642;13.756;2023-04-03T04:17:04;21.60;59.10
15609;DHT22;64278;45.642;13.756;2023-04-03T04:19:29;21.60;59.10
15609;DHT22;64278;45.642;13.756;2023-04-03T04:21:55;21.60;59.10
15609;DHT22;64278;45.642;13.756;2023-04-03T04:24:21;21.60;59.10
15609;DHT22;64278;45.642;13.756;2023-04-03T04:26:48;21.60;59.10
15609;DHT22;64278;45.642;13.756;2023-04-03T04:29:14;21.60;59.10
15609;DHT22;64278;45.642;13.756;2023-04-03T04:31:39;21.60;59.10
15609;DHT22;64278;45.642;13.756;2023-04-03T04:34:05;21.60;59.10
15609;DHT22;64278;45.642;13.756;2023-04-03T04:36:31;21.60;59.00
15609;DHT22;64278;45.642;13.756;2023-04-03T04:38:57;21.60;59.00
15609;DHT22;64278;45.642;13.756;2023-04-03T04:41:23;21.60;59.10
15609;DHT22;64278;45.642;13.756;2023-04-03T04:43:50;21.60;59.00
15609;DHT22;64278;45.642;13.756;2023-04-03T04:46:16;21.60;59.00
15609;DHT22;64278;45.642;13.756;2023-04-03T04:48:42;21.60;59.10
15609;DHT22;64278;45.642;13.756;2023-04-03T04:51:08;21.60;59.00
15609;DHT22;64278;45.642;13.756;2023-04-03T04:53:34;21.60;59.00
15609;DHT22;64278;45.642;13.756;2023-04-03T04:56:00;21.60;59.00
15609;DHT22;64278;45.642;13.756;2023-04-03T04:58:26;21.60;59.00
15609;DHT22;64278;45.642;13.756;2023-04-03T05:01:05;21.60;59.00
15609;DHT22;64278;45.642;13.756;2023-04-03T05:03:31;21.50;58.90
15609;DHT22;64278;45.642;13.756;2023-04-03T05:05:57;21.60;59.00
15609;DHT22;64278;45.642;13.756;2023-04-03T05:08:23;21.60;59.00
15609;DHT22;64278;45.642;13.756;2023-04-03T05:10:49;21.50;58.80
15609;DHT22;64278;45.642;13.756;2023-04-03T05:13:15;21.50;58.80
15609;DHT22;64278;45.642;13.756;2023-04-03T05:15:41;21.50;58.80
15609;DHT22;64278;45.642;13.756;2023-04-03T05:18:06;21.50;58.80
15609;DHT22;64278;45.642;13.756;2023-04-03T05:20:33;21.50;58.70
15609;DHT22;64278;45.642;13.756;2023-04-03T05:22:59;21.50;58.50
15609;DHT22;64278;45.642;13.756;2023-04-03T05:25:24;21.50;58.50
15609;DHT22;64278;45.642;13.756;2023-04-03T05:27:51;21.50;58.50
15609;DHT22;64278;45.642;13.756;2023-04-03T05:30:16;21.50;58.50
15609;DHT22;64278;45.642;13.756;2023-04-03T05:32:42;21.50;58.30
15609;DHT22;64278;45.642;13.756;2023-04-03T05:35:08;21.50;58.40
15609;DHT22;64278;45.642;13.756;2023-04-03T05:37:34;21.50;58.40
15609;DHT22;64278;45.642;13.756;2023-04-03T05:40:00;21.50;58.40
15609;DHT22;64278;45.642;13.756;2023-04-03T05:42:26;21.50;58.50
15609;DHT22;64278;45.642;13.756;2023-04-03T05:44:52;21.50;58.20
15609;DHT22;64278;45.642;13.756;2023-04-03T05:47:18;21.50;58.20
15609;DHT22;64278;45.642;13.756;2023-04-03T05:49:45;21.50;58.20
15609;DHT22;64278;45.642;13.756;2023-04-03T05:52:38;21.50;58.20
15609;DHT22;64278;45.642;13.756;2023-04-03T05:55:05;21.50;58.20
15609;DHT22;64278;45.642;13.756;2023-04-03T05:57:31;21.50;58.20
15609;DHT22;64278;45.642;13.756;2023-04-03T05:59:57;21.50;58.20
15609;DHT22;64278;45.642;13.756;2023-04-03T06:02:24;21.50;58.10
15609;DHT22;64278;45.642;13.756;2023-04-03T06:04:51;21.40;57.90
15609;DHT22;64278;45.642;13.756;2023-04-03T06:07:22;21.40;57.60
15609;DHT22;64278;45.642;13.756;2023-04-03T06:09:50;21.40;57.50
15609;DHT22;64278;45.642;13.756;2023-04-03T06:12:16;21.40;57.70
15609;DHT22;64278;45.642;13.756;2023-04-03T06:14:42;21.40;57.70
15609;DHT22;64278;45.642;13.756;2023-04-03T06:17:08;21.40;57.80
15609;DHT22;64278;45.642;13.756;2023-04-03T06:19:35;21.40;57.80
15609;DHT22;64278;45.642;13.756;2023-04-03T06:22:01;21.40;57.80
15609;DHT22;64278;45.642;13.756;2023-04-03T06:24:28;21.40;57.80
15609;DHT22;64278;45.642;13.756;2023-04-03T06:26:54;21.40;57.80
15609;DHT22;64278;45.642;13.756;2023-04-03T06:29:20;21.40;57.70
15609;DHT22;64278;45.642;13.756;2023-04-03T06:31:47;21.40;57.60
15609;DHT22;64278;45.642;13.756;2023-04-03T06:34:13;21.40;57.40
15609;DHT22;64278;45.642;13.756;2023-04-03T06:36:39;21.40;58.00
15609;DHT22;64278;45.642;13.756;2023-04-03T06:39:05;21.40;57.40
15609;DHT22;64278;45.642;13.756;2023-04-03T06:41:32;21.40;57.40
15609;DHT22;64278;45.642;13.756;2023-04-03T06:43:58;21.40;57.50
15609;DHT22;64278;45.642;13.756;2023-04-03T06:46:25;21.40;57.50
15609;DHT22;64278;45.642;13.756;2023-04-03T06:48:52;21.40;57.50
15609;DHT22;64278;45.642;13.756;2023-04-03T06:51:20;21.40;57.40
15609;DHT22;64278;45.642;13.756;2023-04-03T06:53:48;21.40;57.40
15609;DHT22;64278;45.642;13.756;2023-04-03T06:56:15;21.40;57.40
15609;DHT22;64278;45.642;13.756;2023-04-03T06:58:42;21.40;57.40
15609;DHT22;64278;45.642;13.756;2023-04-03T07:01:10;21.40;57.30
15609;DHT22;64278;45.642;13.756;2023-04-03T07:03:36;21.40;57.90
15609;DHT22;64278;45.642;13.756;2023-04-03T07:06:03;21.40;57.20
15609;DHT22;64278;45.642;13.756;2023-04-03T07:08:29;21.40;57.20
15609;DHT22;64278;45.642;13.756;2023-04-03T07:10:55;21.40;57.20
15609;DHT22;64278;45.642;13.756;2023-04-03T07:13:21;21.40;57.10
15609;DHT22;64278;45.642;13.756;2023-04-03T07:15:47;21.40;57.00
15609;DHT22;64278;45.642;13.756;2023-04-03T07:18:13;21.40;57.00
15609;DHT22;64278;45.642;13.756;2023-04-03T07:20:39;21.40;57.00
15609;DHT22;64278;45.642;13.756;2023-04-03T07:23:05;21.30;56.90
15609;DHT22;64278;45.642;13.756;2023-04-03T07:25:31;21.30;56.90
15609;DHT22;64278;45.642;13.756;2023-04-03T07:27:57;21.30;56.80
15609;DHT22;64278;45.642;13.756;2023-04-03T07:30:23;21.30;56.70
15609;DHT22;64278;45.642;13.756;2023-04-03T07:32:49;21.40;56.70
15609;DHT22;64278;45.642;13.756;2023-04-03T07:35:15;21.30;56.60
15609;DHT22;64278;45.642;13.756;2023-04-03T07:37:42;21.40;56.60
15609;DHT22;64278;45.642;13.756;2023-04-03T07:40:08;21.30;56.50
15609;DHT22;64278;45.642;13.756;2023-04-03T07:42:34;21.30;56.50
15609;DHT22;64278;45.642;13.756;2023-04-03T07:45:01;21.30;56.60
15609;DHT22;64278;45.642;13.756;2023-04-03T07:47:27;21.30;56.60
15609;DHT22;64278;45.642;13.756;2023-04-03T07:49:52;21.30;56.60
15609;DHT22;64278;45.642;13.756;2023-04-03T07:52:18;21.30;56.60
15609;DHT22;64278;45.642;13.756;2023-04-03T07:54:44;21.30;56.60
15609;DHT22;64278;45.642;13.756;2023-04-03T07:57:10;21.30;56.60
15609;DHT22;64278;45.642;13.756;2023-04-03T07:59:36;21.30;56.60
15609;DHT22;64278;45.642;13.756;2023-04-03T08:02:01;21.30;56.60
15609;DHT22;64278;45.642;13.756;2023-04-03T08:04:30;21.30;56.50
15609;DHT22;64278;45.642;13.756;2023-04-03T08:06:55;21.30;56.20
15609;DHT22;64278;45.642;13.756;2023-04-03T08:09:21;21.30;56.00
15609;DHT22;64278;45.642;13.756;2023-04-03T08:11:47;21.30;55.80
15609;DHT22;64278;45.642;13.756;2023-04-03T08:14:13;21.20;55.50
15609;DHT22;64278;45.642;13.756;2023-04-03T08:16:45;21.20;55.30
15609;DHT22;64278;45.642;13.756;2023-04-03T08:19:11;21.20;54.10
15609;DHT22;64278;45.642;13.756;2023-04-03T08:21:40;20.90;40.00
15609;DHT22;64278;45.642;13.756;2023-04-03T08:24:07;20.60;38.20
15609;DHT22;64278;45.642;13.756;2023-04-03T08:26:32;20.40;36.70
15609;DHT22;64278;45.642;13.756;2023-04-03T08:28:58;20.10;35.30
15609;DHT22;64278;45.642;13.756;2023-04-03T08:31:24;19.80;36.00
15609;DHT22;64278;45.642;13.756;2023-04-03T08:33:50;19.60;35.30
15609;DHT22;64278;45.642;13.756;2023-04-03T08:36:21;19.40;35.30
15609;DHT22;64278;45.642;13.756;2023-04-03T08:38:48;19.40;36.60
15609;DHT22;64278;45.642;13.756;2023-04-03T08:41:29;19.50;40.30
15609;DHT22;64278;45.642;13.756;2023-04-03T08:44:23;19.80;42.10
15609;DHT22;64278;45.642;13.756;2023-04-03T08:47:32;20.00;43.30
15609;DHT22;64278;45.642;13.756;2023-04-03T08:50:01;20.30;43.70
15609;DHT22;64278;45.642;13.756;2023-04-03T08:52:39;20.50;43.90
15609;DHT22;64278;45.642;13.756;2023-04-03T08:57:46;20.60;42.30
15609;DHT22;64278;45.642;13.756;2023-04-03T09:02:53;20.80;42.10
15609;DHT22;64278;45.642;13.756;2023-04-03T09:05:29;20.80;40.40
15609;DHT22;64278;45.642;13.756;2023-04-03T09:07:59;20.90;41.60
15609;DHT22;64278;45.642;13.756;2023-04-03T09:10:30;20.90;41.90
15609;DHT22;64278;45.642;13.756;2023-04-03T09:13:21;21.00;42.40
15609;DHT22;64278;45.642;13.756;2023-04-03T09:15:48;21.10;42.50
15609;DHT22;64278;45.642;13.756;2023-04-03T09:18:30;21.10;42.90
15609;DHT22;64278;45.642;13.756;2023-04-03T09:21:28;21.20;43.00
15609;DHT22;64278;45.642;13.756;2023-04-03T09:23:59;21.20;43.40
15609;DHT22;64278;45.642;13.756;2023-04-03T09:26:29;21.20;43.60
15609;DHT22;64278;45.642;13.756;2023-04-03T09:28:59;21.20;43.90
15609;DHT22;64278;45.642;13.756;2023-04-03T09:31:46;21.30;44.20
15609;DHT22;64278;45.642;13.756;2023-04-03T09:36:53;21.40;44.80
15609;DHT22;64278;45.642;13.756;2023-04-03T09:39:22;21.40;44.90
15609;DHT22;64278;45.642;13.756;2023-04-03T09:42:24;21.40;44.90
15609;DHT22;64278;45.642;13.756;2023-04-03T09:45:21;21.40;44.90
15609;DHT22;64278;45.642;13.756;2023-04-03T09:47:47;21.40;44.90
15609;DHT22;64278;45.642;13.756;2023-04-03T09:52:49;21.50;45.30
15609;DHT22;64278;45.642;13.756;2023-04-03T09:55:21;21.50;45.80
15609;DHT22;64278;45.642;13.756;2023-04-03T09:58:02;21.50;46.30
15609;DHT22;64278;45.642;13.756;2023-04-03T10:00:35;21.50;46.70
15609;DHT22;64278;45.642;13.756;2023-04-03T10:03:01;21.60;47.00
15609;DHT22;64278;45.642;13.756;2023-04-03T10:05:35;21.60;47.30
15609;DHT22;64278;45.642;13.756;2023-04-03T10:10:40;21.60;47.60
15609;DHT22;64278;45.642;13.756;2023-04-03T10:13:17;21.60;47.90
15609;DHT22;64278;45.642;13.756;2023-04-03T10:20:51;21.70;48.30
15609;DHT22;64278;45.642;13.756;2023-04-03T10:23:42;21.70;48.40
15609;DHT22;64278;45.642;13.756;2023-04-03T10:29:27;21.70;48.70
15609;DHT22;64278;45.642;13.756;2023-04-03T10:35:08;21.80;49.00
15609;DHT22;64278;45.642;13.756;2023-04-03T10:38:31;21.80;49.10
15609;DHT22;64278;45.642;13.756;2023-04-03T10:46:21;21.80;49.20
15609;DHT22;64278;45.642;13.756;2023-04-03T10:49:13;21.70;49.10
15609;DHT22;64278;45.642;13.756;2023-04-03T10:51:48;21.70;49.20
15609;DHT22;64278;45.642;13.756;2023-04-03T10:54:29;21.70;49.20
15609;DHT22;64278;45.642;13.756;2023-04-03T10:57:10;21.70;49.20
15609;DHT22;64278;45.642;13.756;2023-04-03T10:59:59;21.70;49.30
15609;DHT22;64278;45.642;13.756;2023-04-03T11:02:36;21.70;49.30
15609;DHT22;64278;45.642;13.756;2023-04-03T11:05:08;21.70;49.40
15609;DHT22;64278;45.642;13.756;2023-04-03T11:07:45;21.70;49.30
15609;DHT22;64278;45.642;13.756;2023-04-03T11:10:17;21.70;49.20
15609;DHT22;64278;45.642;13.756;2023-04-03T11:12:51;21.70;49.20
15609;DHT22;64278;45.642;13.756;2023-04-03T11:15:29;21.70;49.30
15609;DHT22;64278;45.642;13.756;2023-04-03T11:18:02;21.70;49.20
15609;DHT22;64278;45.642;13.756;2023-04-03T11:20:32;21.70;49.80
15609;DHT22;64278;45.642;13.756;2023-04-03T11:23:31;21.70;49.20
15609;DHT22;64278;45.642;13.756;2023-04-03T11:26:11;21.70;49.20
15609;DHT22;64278;45.642;13.756;2023-04-03T11:28:39;21.70;49.20
15609;DHT22;64278;45.642;13.756;2023-04-03T11:36:53;21.70;49.10
15609;DHT22;64278;45.642;13.756;2023-04-03T11:39:31;21.70;49.20
15609;DHT22;64278;45.642;13.756;2023-04-03T11:42:23;21.70;49.10
15609;DHT22;64278;45.642;13.756;2023-04-03T11:44:50;21.60;49.10
15609;DHT22;64278;45.642;13.756;2023-04-03T11:47:46;21.70;49.20
15609;DHT22;64278;45.642;13.756;2023-04-03T11:53:28;21.70;49.10
15609;DHT22;64278;45.642;13.756;2023-04-03T11:55:57;21.70;49.00
15609;DHT22;64278;45.642;13.756;2023-04-03T11:58:26;21.70;49.10
15609;DHT22;64278;45.642;13.756;2023-04-03T12:00:59;21.70;49.10
15609;DHT22;64278;45.642;13.756;2023-04-03T12:29:10;21.70;49.00
15609;DHT22;64278;45.642;13.756;2023-04-03T12:45:50;21.70;50.70
15609;DHT22;64278;45.642;13.756;2023-04-03T12:48:22;21.70;51.10
15609;DHT22;64278;45.642;13.756;2023-04-03T12:50:50;21.70;51.50
15609;DHT22;64278;45.642;13.756;2023-04-03T12:53:20;21.70;51.90
15609;DHT22;64278;45.642;13.756;2023-04-03T12:55:47;21.70;51.90
15609;DHT22;64278;45.642;13.756;2023-04-03T12:58:23;21.70;51.90
15609;DHT22;64278;45.642;13.756;2023-04-03T13:01:23;21.70;51.80
15609;DHT22;64278;45.642;13.756;2023-04-03T13:03:53;21.70;51.70
15609;DHT22;64278;45.642;13.756;2023-04-03T13:06:21;21.70;51.60
15609;DHT22;64278;45.642;13.756;2023-04-03T13:08:53;21.70;51.60
15609;DHT22;64278;45.642;13.756;2023-04-03T13:11:20;21.70;51.60
15609;DHT22;64278;45.642;13.756;2023-04-03T13:14:00;21.70;51.50
15609;DHT22;64278;45.642;13.756;2023-04-03T13:16:27;21.70;51.40
15609;DHT22;64278;45.642;13.756;2023-04-03T13:18:54;21.70;51.40
15609;DHT22;64278;45.642;13.756;2023-04-03T13:21:26;21.70;51.40
15609;DHT22;64278;45.642;13.756;2023-04-03T13:23:55;21.70;51.40
15609;DHT22;64278;45.642;13.756;2023-04-03T13:26:25;21.70;51.40
15609;DHT22;64278;45.642;13.756;2023-04-03T13:28:52;21.70;51.30
15609;DHT22;64278;45.642;13.756;2023-04-03T13:31:27;21.70;51.30
15609;DHT22;64278;45.642;13.756;2023-04-03T13:41:46;21.70;51.30
15609;DHT22;64278;45.642;13.756;2023-04-03T13:44:27;21.70;51.30
15609;DHT22;64278;45.642;13.756;2023-04-03T13:46:56;21.70;51.30
15609;DHT22;64278;45.642;13.756;2023-04-03T13:51:54;21.70;51.20
15609;DHT22;64278;45.642;13.756;2023-04-03T13:54:29;21.70;51.20
15609;DHT22;64278;45.642;13.756;2023-04-03T13:56:57;21.70;51.20
15609;DHT22;64278;45.642;13.756;2023-04-03T13:59:30;21.70;51.20
15609;DHT22;64278;45.642;13.756;2023-04-03T14:04:30;21.70;51.10
15609;DHT22;64278;45.642;13.756;2023-04-03T14:06:56;21.60;51.00
15609;DHT22;64278;45.642;13.756;2023-04-03T14:09:23;21.70;51.00
15609;DHT22;64278;45.642;13.756;2023-04-03T14:11:53;21.70;51.00
15609;DHT22;64278;45.642;13.756;2023-04-03T14:14:29;21.70;51.00
15609;DHT22;64278;45.642;13.756;2023-04-03T14:16:59;21.70;51.00
15609;DHT22;64278;45.642;13.756;2023-04-03T14:19:29;21.70;51.00
15609;DHT22;64278;45.642;13.756;2023-04-03T14:21:56;21.70;51.00
15609;DHT22;64278;45.642;13.756;2023-04-03T14:24:23;21.70;51.00
15609;DHT22;64278;45.642;13.756;2023-04-03T14:26:54;21.70;51.00
15609;DHT22;64278;45.642;13.756;2023-04-03T14:29:21;21.60;50.90
15609;DHT22;64278;45.642;13.756;2023-04-03T14:31:48;21.60;50.90
15609;DHT22;64278;45.642;13.756;2023-04-03T14:34:14;21.60;50.90
15609;DHT22;64278;45.642;13.756;2023-04-03T14:36:42;21.60;50.80
15609;DHT22;64278;45.642;13.756;2023-04-03T14:39:11;21.60;50.90
15609;DHT22;64278;45.642;13.756;2023-04-03T14:41:42;21.60;50.80
15609;DHT22;64278;45.642;13.756;2023-04-03T14:44:08;21.60;50.80
15609;DHT22;64278;45.642;13.756;2023-04-03T14:46:39;21.60;50.80
15609;DHT22;64278;45.642;13.756;2023-04-03T14:49:24;21.60;50.80
15609;DHT22;64278;45.642;13.756;2023-04-03T14:51:50;21.60;50.70
15609;DHT22;64278;45.642;13.756;2023-04-03T14:54:18;21.60;50.80
15609;DHT22;64278;45.642;13.756;2023-04-03T14:56:47;21.60;50.80
15609;DHT22;64278;45.642;13.756;2023-04-03T14:59:14;21.60;50.70
15609;DHT22;64278;45.642;13.756;2023-04-03T15:01:40;21.60;50.70
15609;DHT22;64278;45.642;13.756;2023-04-03T15:04:14;21.60;50.70
15609;DHT22;64278;45.642;13.756;2023-04-03T15:06:41;21.60;50.70
15609;DHT22;64278;45.642;13.756;2023-04-03T15:09:19;21.60;50.70
15609;DHT22;64278;45.642;13.756;2023-04-03T15:11:46;21.50;50.60
15609;DHT22;64278;45.642;13.756;2023-04-03T15:14:11;21.50;50.60
15609;DHT22;64278;45.642;13.756;2023-04-03T15:16:37;21.50;50.60
15609;DHT22;64278;45.642;13.756;2023-04-03T15:19:03;21.50;50.70
15609;DHT22;64278;45.642;13.756;2023-04-03T15:21:28;21.60;50.70
15609;DHT22;64278;45.642;13.756;2023-04-03T15:23:54;21.50;50.60
15609;DHT22;64278;45.642;13.756;2023-04-03T15:26:20;21.50;50.60
15609;DHT22;64278;45.642;13.756;2023-04-03T15:28:46;21.50;50.60
15609;DHT22;64278;45.642;13.756;2023-04-03T15:31:12;21.50;50.60
15609;DHT22;64278;45.642;13.756;2023-04-03T15:33:38;21.50;50.60
15609;DHT22;64278;45.642;13.756;2023-04-03T15:36:05;21.50;50.60
15609;DHT22;64278;45.642;13.756;2023-04-03T15:38:30;21.50;50.60
15609;DHT22;64278;45.642;13.756;2023-04-03T15:40:57;21.50;50.60
15609;DHT22;64278;45.642;13.756;2023-04-03T15:43:23;21.50;50.60
15609;DHT22;64278;45.642;13.756;2023-04-03T15:45:49;21.50;50.60
15609;DHT22;64278;45.642;13.756;2023-04-03T15:48:16;21.50;50.60
15609;DHT22;64278;45.642;13.756;2023-04-03T15:50:42;21.50;50.60
15609;DHT22;64278;45.642;13.756;2023-04-03T15:53:08;21.50;50.70
15609;DHT22;64278;45.642;13.756;2023-04-03T15:55:36;21.50;50.60
15609;DHT22;64278;45.642;13.756;2023-04-03T15:58:02;21.50;50.60
15609;DHT22;64278;45.642;13.756;2023-04-03T16:00:29;21.40;50.60
15609;DHT22;64278;45.642;13.756;2023-04-03T16:03:02;21.50;50.70
15609;DHT22;64278;45.642;13.756;2023-04-03T16:05:30;21.50;50.60
15609;DHT22;64278;45.642;13.756;2023-04-03T16:07:57;21.40;50.70
15609;DHT22;64278;45.642;13.756;2023-04-03T16:10:24;21.40;51.30
15609;DHT22;64278;45.642;13.756;2023-04-03T16:12:50;21.40;50.60
15609;DHT22;64278;45.642;13.756;2023-04-03T16:15:16;21.40;50.60
15609;DHT22;64278;45.642;13.756;2023-04-03T16:17:42;21.40;50.60
15609;DHT22;64278;45.642;13.756;2023-04-03T16:20:09;21.40;50.60
15609;DHT22;64278;45.642;13.756;2023-04-03T16:22:35;21.40;50.60
15609;DHT22;64278;45.642;13.756;2023-04-03T16:25:02;21.40;50.70
15609;DHT22;64278;45.642;13.756;2023-04-03T16:27:28;21.40;50.70
15609;DHT22;64278;45.642;13.756;2023-04-03T16:29:59;21.50;50.70
15609;DHT22;64278;45.642;13.756;2023-04-03T16:32:27;21.50;50.70
15609;DHT22;64278;45.642;13.756;2023-04-03T16:34:54;21.50;50.60
15609;DHT22;64278;45.642;13.756;2023-04-03T16:37:20;21.50;50.60
15609;DHT22;64278;45.642;13.756;2023-04-03T16:39:46;21.50;50.50
15609;DHT22;64278;45.642;13.756;2023-04-03T16:42:11;21.50;50.50
15609;DHT22;64278;45.642;13.756;2023-04-03T16:44:37;21.50;50.50
15609;DHT22;64278;45.642;13.756;2023-04-03T16:47:05;21.50;50.40
15609;DHT22;64278;45.642;13.756;2023-04-03T16:49:31;21.50;50.40
15609;DHT22;64278;45.642;13.756;2023-04-03T16:52:03;21.50;50.40
15609;DHT22;64278;45.642;13.756;2023-04-03T16:54:29;21.50;50.40
15609;DHT22;64278;45.642;13.756;2023-04-03T16:56:55;21.50;50.40
15609;DHT22;64278;45.642;13.756;2023-04-03T16:59:21;21.50;50.50